Vremea acum in Alba Iulia - Romania

Vrei sa afli care e starea vremii acum in Alba - Romania? Dorim sa iti furnizam starea vremii pentru Alba - Romania. Starea vremii Alba - Romania pentru astazi.

Vremea acum in Alba Iulia

Temperatura: 19 °C

Se simte ca: 19 °C
Innorat: 0 %
Precipitatii: 25 %
Presiune atmosferica: 1018 hPa
Umiditate: 88%
Vizibilitate: 10 km
Vantul bate din N cu 0 km/h

Evolutia vremii in Alba Iulia pe ore

Ora: 07:00
Ploi pe porţiuni în apropiere
Temperatura: 19.6°C
Sansa de precipitatii: 25%
Ora Descriere Temp Se simte Precipitatii Umiditate Vant
00:00Parțial noros18°18°45%83%W 2.2 KM/H
01:00Ploi pe porţiuni în apropiere16.7°16.7°23%84%WNW 2.5 KM/H
02:00Parțial noros15.5°15.5°0%86%WNW 2.5 KM/H
03:00Ploi pe porţiuni în apropiere15.6°15.6°25%87%SSW 2.2 KM/H
04:00Parțial noros15.6°15.6°51%88%E 1.4 KM/H
05:00Ploi pe porţiuni în apropiere15.7°15.7°76%89%N 1.1 KM/H
06:00Parțial noros17.7°17.7°51%86%NNE 2.2 KM/H
07:00Ploi pe porţiuni în apropiere19.6°19.6°25%83%NNE 2.9 KM/H
08:00Parțial noros21.6°21.6°0%81%NE 4 KM/H
09:00Ploi pe porţiuni în apropiere22.9°25.3°26%77%ENE 5 KM/H
10:00Parțial noros24.3°26.3°52%72%ENE 6.1 KM/H
11:00Ploi pe porţiuni în apropiere25.6°27.2°78%68%ENE 7.2 KM/H
12:00Parțial noros26°27.6°52%66%E 8.3 KM/H
13:00Ploi pe porţiuni în apropiere26.5°28°26%64%ESE 9.4 KM/H
14:00Parțial noros26.9°28.4°0%62%SE 10.4 KM/H
15:00Ploi pe porţiuni în apropiere26.5°27.9°28%63%ESE 9.7 KM/H
16:00Parțial noros26°27.5°57%64%ESE 9 KM/H
17:00Ploi pe porţiuni în apropiere25.6°27°85%66%E 8.3 KM/H
18:00Parțial noros24.3°26.5°57%69%ENE 7.6 KM/H
19:00Ploi pe porţiuni în apropiere22.9°26.1°28%72%NE 6.8 KM/H
20:00Parțial noros21.6°21.6°0%75%NNE 6.1 KM/H
21:00Ploi pe porţiuni în apropiere20.9°20.9°26%77%SE 5 KM/H
22:00Parțial noros20.3°20.3°53%80%SW 3.6 KM/H
23:00Ploi pe porţiuni în apropiere19.6°19.6°79%82%NW 2.5 KM/H